Atlantic, Maine
Current Conditions -  °F | °C
As of 9:55 AM on Friday 28 Nov 2014 (Local Time) from KBHB Reporting Station
Clear Clear  
Wind Chill:   Ceiling: Unl
Heat Index: 21°   Visibility: 10mi
Dew Point: 19°   Wind: 12mph
Humidity: 93%   Direction: 10°N
Pressure: 30.02"   Gusts: NA
Location:  44.1716°N, 68.4245°W
Report Text: KBHB 281455Z AUTO 01010KT 10SM CLR M06/M07 A3002 RMK AO1 57003
Loading
Personal Weather Stations






























Interactive Weather Map New forecast layout! Learn more

10-Day Weather Forecast

Advertisements
Track Severe Weather on mobile